Darstellungsparameter: Aktuell verwendete Einstellungen:
Skalierung der Graphiken ... ?
xyx+y,   Skalierungsfaktor:      Skalierung: Modus: x, Faktor: 1
Darstellungszeitraum ... ?
Vom - - bis: - -   Zeitraum: 17.10.2011 - 23.10.2011
Min/Max/Avg-Anzeige ... ?
Zeige MMA aktuell
Zeige MMA Monat
Zeige MMA alles
Zeige --A aktuell
Zeige --A Monat
Zeige --A alles
Keine MMA-Anzeige
MMA:
Keine MMA-Graphiken
MMA-Basis: 17.10.2011 - 23.10.2011
Quicknavigation für Darstellung... ?
Tage:      1T, 2T, 3T, 5T -1T -2T -3T -5T +1T +2T +3T +5T
Wochen: 1W, 2W, 3W -1W -2W -3W +1W +2W +3W
Monate: 1M, 3M, 6M -1M -3M -6M +1M +3M +6M
Jahre:    1J, 3J, 5J, 10J -1J -3J -5J -10J +1J +3J +5J +10J
Nutze für die Darstellung ... ?
Originaldaten oder Mittelwerte auf ...
Stundenbasis Tagesbasis Wochenbasis
Monatsbasis Jahresbasis      Datenbasis: Original-Daten
Darstellen als:
Statistik (Auto) Statistik J:M      Darstellung:
Zur Graphik,    zurück zur Übersicht aller Sensoren.
 
Tabellarische Datenbersicht: ?
 
Sensor: Nr:Datum:Temp:Feuchte:Taupunkt:
Aussen-T/F 1 17-10-2011 00:03:04 3 C 90 % 1.52 C
2 17-10-2011 00:15:04 3 C 90 % 1.52 C
3 17-10-2011 00:27:04 3.1 C 91 % 1.78 C
4 17-10-2011 00:39:04 2.9 C 91 % 1.58 C
5 17-10-2011 00:51:04 2.8 C 91 % 1.48 C
6 17-10-2011 01:03:04 2.6 C 91 % 1.28 C
7 17-10-2011 01:15:04 2.3 C 90 % 0.83 C
8 17-10-2011 01:27:04 2.2 C 90 % 0.73 C
9 17-10-2011 01:39:04 2.2 C 91 % 0.89 C
10 17-10-2011 01:51:04 2.7 C 92 % 1.53 C
11 17-10-2011 02:03:04 2.2 C 92 % 1.04 C
12 17-10-2011 02:15:04 2.3 C 92 % 1.14 C
13 17-10-2011 02:27:04 2.3 C 92 % 1.14 C
14 17-10-2011 02:39:04 2.7 C 92 % 1.53 C
15 17-10-2011 02:51:04 3.5 C 92 % 2.33 C
16 17-10-2011 03:03:04 3.8 C 93 % 2.77 C
17 17-10-2011 03:15:04 4.2 C 92 % 3.02 C
18 17-10-2011 03:27:04 4.1 C 92 % 2.92 C
19 17-10-2011 03:39:04 3.4 C 93 % 2.38 C
20 17-10-2011 03:51:04 2.7 C 93 % 1.68 C
21 17-10-2011 04:03:04 2.2 C 92 % 1.04 C
22 17-10-2011 04:15:05 2 C 92 % 0.84 C
23 17-10-2011 04:27:05 1.6 C 93 % 0.59 C
24 17-10-2011 04:39:05 1.5 C 93 % 0.49 C
25 17-10-2011 04:51:05 1.3 C 92 % 0.15 C
Sensor: Nr:Datum:Temp:Feuchte:Taupunkt:
Aussen-T/F 26 17-10-2011 05:03:05 1.4 C 93 % 0.4 C
27 17-10-2011 05:15:05 1.4 C 93 % 0.4 C
28 17-10-2011 05:27:05 1.3 C 93 % 0.3 C
29 17-10-2011 05:39:05 2.1 C 93 % 1.09 C
30 17-10-2011 05:51:05 2.5 C 93 % 1.49 C
31 17-10-2011 06:03:05 2.3 C 93 % 1.29 C
32 17-10-2011 06:15:05 2.1 C 93 % 1.09 C
33 17-10-2011 06:27:05 1.8 C 93 % 0.79 C
34 17-10-2011 06:39:05 2.2 C 93 % 1.19 C
35 17-10-2011 06:51:05 2.3 C 93 % 1.29 C
36 17-10-2011 07:03:05 2.5 C 93 % 1.49 C
37 17-10-2011 07:15:05 2.8 C 94 % 1.93 C
38 17-10-2011 07:27:05 3 C 93 % 1.98 C
39 17-10-2011 07:39:03 3.1 C 93 % 2.08 C
40 17-10-2011 07:51:01 3.3 C 93 % 2.28 C
41 17-10-2011 08:03:02 3.3 C 93 % 2.28 C
42 17-10-2011 08:15:01 3.4 C 94 % 2.53 C
43 17-10-2011 08:27:01 3.5 C 94 % 2.63 C
44 17-10-2011 08:39:02 3.6 C 94 % 2.73 C
45 17-10-2011 08:51:02 3.5 C 94 % 2.63 C
46 17-10-2011 09:03:02 3.3 C 93 % 2.28 C
47 17-10-2011 09:15:01 3.4 C 94 % 2.53 C
48 17-10-2011 09:27:01 3.5 C 94 % 2.63 C
49 17-10-2011 09:39:02 3.5 C 94 % 2.63 C
50 17-10-2011 09:51:01 3.6 C 94 % 2.73 C
Sensor: Nr:Datum:Temp:Feuchte:Taupunkt:
Aussen-T/F 51 17-10-2011 10:03:02 4.2 C 93 % 3.17 C
52 17-10-2011 10:15:02 4.3 C 93 % 3.27 C
53 17-10-2011 10:27:02 4.6 C 93 % 3.57 C
54 17-10-2011 10:39:02 4.8 C 92 % 3.61 C
55 17-10-2011 10:51:02 5.2 C 91 % 3.85 C
56 17-10-2011 11:03:01 5.9 C 91 % 4.55 C
57 17-10-2011 11:15:02 6.7 C 88 % 4.86 C
58 17-10-2011 11:27:02 7 C 85 % 4.66 C
59 17-10-2011 11:39:01 7.6 C 82 % 4.73 C
60 17-10-2011 11:51:02 8 C 77 % 4.22 C
61 17-10-2011 12:03:01 8.4 C 73 % 3.85 C
62 17-10-2011 12:15:01 9.2 C 69 % 3.82 C
63 17-10-2011 12:27:01 9.6 C 68 % 3.99 C
64 17-10-2011 12:39:02 10.1 C 65 % 3.83 C
65 17-10-2011 12:51:02 10.3 C 65 % 4.02 C
66 17-10-2011 13:03:02 11.1 C 63 % 4.33 C
67 17-10-2011 13:15:01 11.7 C 61 % 4.44 C
68 17-10-2011 13:27:01 11.6 C 60 % 4.11 C
69 17-10-2011 13:39:01 11.6 C 60 % 4.11 C
70 17-10-2011 13:51:02 12.3 C 60 % 4.77 C
71 17-10-2011 14:03:02 12.5 C 60 % 4.96 C
72 17-10-2011 14:15:02 11.8 C 62 % 4.77 C
73 17-10-2011 14:27:02 12.7 C 57 % 4.41 C
74 17-10-2011 14:39:03 12.9 C 54 % 3.83 C
75 17-10-2011 14:51:02 13.1 C 52 % 3.48 C
Sensor: Nr:Datum:Temp:Feuchte:Taupunkt:
Aussen-T/F 76 17-10-2011 15:03:02 13.2 C 51 % 3.3 C
77 17-10-2011 15:15:01 13.3 C 50 % 3.11 C
78 17-10-2011 15:27:01 13.3 C 55 % 4.46 C
79 17-10-2011 15:39:02 13.1 C 55 % 4.28 C
80 17-10-2011 15:51:02 13.6 C 56 % 5 C
81 17-10-2011 16:03:02 13.3 C 58 % 5.22 C
82 17-10-2011 16:15:01 13.4 C 58 % 5.32 C
83 17-10-2011 16:27:01 13.1 C 56 % 4.53 C
84 17-10-2011 16:39:02 13.4 C 57 % 5.07 C
85 17-10-2011 16:51:02 13.7 C 59 % 5.84 C
86 17-10-2011 17:03:02 14.5 C 56 % 5.84 C
87 17-10-2011 17:15:02 14.4 C 53 % 4.95 C
88 17-10-2011 17:27:02 13.8 C 56 % 5.19 C
89 17-10-2011 17:39:02 12.7 C 60 % 5.14 C
90 17-10-2011 17:51:02 11.1 C 67 % 5.21 C
91 17-10-2011 18:03:02 10.4 C 72 % 5.58 C
92 17-10-2011 18:15:02 10 C 74 % 5.59 C
93 17-10-2011 18:27:02 9.7 C 76 % 5.68 C
94 17-10-2011 18:39:01 9.2 C 78 % 5.57 C
95 17-10-2011 18:51:01 8.8 C 81 % 5.72 C
96 17-10-2011 19:03:02 8.9 C 82 % 6 C
97 17-10-2011 19:15:02 8.6 C 83 % 5.88 C
98 17-10-2011 19:27:02 8.6 C 83 % 5.88 C
99 17-10-2011 19:39:02 8.4 C 83 % 5.69 C
100 17-10-2011 19:51:02 8.3 C 84 % 5.76 C
Sensor: Nr:Datum:Temp:Feuchte:Taupunkt:
Aussen-T/F 101 17-10-2011 20:03:02 8 C 84 % 5.47 C
102 17-10-2011 20:15:02 7.9 C 86 % 5.71 C
103 17-10-2011 20:27:02 7.9 C 87 % 5.87 C
104 17-10-2011 20:39:02 7 C 87 % 4.99 C
105 17-10-2011 20:51:02 7.3 C 87 % 5.28 C
106 17-10-2011 21:03:02 6.7 C 88 % 4.86 C
107 17-10-2011 21:15:02 6.4 C 89 % 4.72 C
108 17-10-2011 21:27:02 6.1 C 88 % 4.27 C
109 17-10-2011 21:39:02 6.4 C 88 % 4.56 C
110 17-10-2011 21:51:01 6 C 89 % 4.33 C
111 17-10-2011 22:03:01 5.3 C 90 % 3.8 C
112 17-10-2011 22:15:01 5.3 C 90 % 3.8 C
113 17-10-2011 22:27:01 5 C 90 % 3.5 C
114 17-10-2011 22:40:02 4.8 C 91 % 3.46 C
115 17-10-2011 22:52:02 4.7 C 91 % 3.36 C
116 17-10-2011 23:04:02 4.9 C 91 % 3.56 C
117 17-10-2011 23:16:02 5.1 C 90 % 3.6 C
118 17-10-2011 23:28:02 4.7 C 91 % 3.36 C
119 17-10-2011 23:40:02 4.4 C 91 % 3.06 C
120 17-10-2011 23:52:02 4.3 C 91 % 2.96 C
121 18-10-2011 00:04:02 4.3 C 91 % 2.96 C
122 18-10-2011 00:16:02 4.3 C 91 % 2.96 C
123 18-10-2011 00:28:02 4 C 91 % 2.67 C
124 18-10-2011 00:40:02 4.1 C 91 % 2.77 C
125 18-10-2011 00:52:02 3.9 C 92 % 2.72 C
Sensor: Nr:Datum:Temp:Feuchte:Taupunkt:
Aussen-T/F 126 18-10-2011 01:04:02 3.8 C 92 % 2.62 C
127 18-10-2011 01:16:03 5 C 91 % 3.66 C
128 18-10-2011 01:28:03 5.4 C 92 % 4.21 C
129 18-10-2011 01:40:03 5.8 C 92 % 4.6 C
130 18-10-2011 01:52:03 5.6 C 92 % 4.41 C
131 18-10-2011 02:04:03 4.8 C 92 % 3.61 C
132 18-10-2011 02:16:03 4.9 C 92 % 3.71 C
133 18-10-2011 02:28:03 4.6 C 92 % 3.42 C
134 18-10-2011 02:40:03 5 C 92 % 3.81 C
135 18-10-2011 02:52:03 4.8 C 93 % 3.77 C
136 18-10-2011 03:04:03 4.2 C 92 % 3.02 C
137 18-10-2011 03:16:03 3.9 C 93 % 2.87 C
138 18-10-2011 03:28:03 4.5 C 92 % 3.32 C
139 18-10-2011 03:40:03 4.6 C 93 % 3.57 C
140 18-10-2011 03:52:03 4.8 C 93 % 3.77 C
141 18-10-2011 04:04:03 4.5 C 93 % 3.47 C
142 18-10-2011 04:16:03 4.4 C 93 % 3.37 C
143 18-10-2011 04:28:03 4.8 C 93 % 3.77 C
144 18-10-2011 04:40:03 5 C 92 % 3.81 C
145 18-10-2011 04:52:03 4.8 C 94 % 3.92 C
146 18-10-2011 05:04:03 4.7 C 93 % 3.67 C
147 18-10-2011 05:16:03 5.6 C 93 % 4.56 C
148 18-10-2011 05:28:03 8.8 C 91 % 7.41 C
149 18-10-2011 05:40:03 9.2 C 91 % 7.81 C
150 18-10-2011 05:52:04 9.6 C 91 % 8.21 C
Sensor: Nr:Datum:Temp:Feuchte:Taupunkt:
Aussen-T/F 151 18-10-2011 06:04:04 9.8 C 91 % 8.4 C
152 18-10-2011 06:16:04 9.7 C 91 % 8.3 C
153 18-10-2011 06:28:04 9.7 C 90 % 8.14 C
154 18-10-2011 06:40:04 9.7 C 90 % 8.14 C
155 18-10-2011 06:52:04 9 C 90 % 7.45 C
156 18-10-2011 07:04:04 9 C 89 % 7.29 C
157 18-10-2011 07:16:01 8.3 C 90 % 6.76 C
158 18-10-2011 07:28:01 8.2 C 90 % 6.66 C
159 18-10-2011 07:40:01 7.8 C 91 % 6.43 C
160 18-10-2011 07:52:01 7.6 C 91 % 6.23 C
161 18-10-2011 08:04:02 8 C 90 % 6.46 C
162 18-10-2011 08:16:02 8.7 C 91 % 7.32 C
163 18-10-2011 08:28:02 9.8 C 90 % 8.24 C
164 18-10-2011 08:40:01 9.7 C 90 % 8.14 C
165 18-10-2011 08:52:02 10.1 C 89 % 8.37 C
166 18-10-2011 09:04:01 10.7 C 88 % 8.8 C
167 18-10-2011 09:16:02 11.7 C 83 % 8.91 C
168 18-10-2011 09:28:02 12.1 C 77 % 8.2 C
169 18-10-2011 09:40:01 12.4 C 75 % 8.1 C
170 18-10-2011 09:52:02 12.7 C 73 % 7.99 C
171 18-10-2011 10:04:03 13 C 69 % 7.45 C
172 18-10-2011 10:16:02 13.5 C 66 % 7.28 C
173 18-10-2011 10:28:03 13.6 C 64 % 6.93 C
174 18-10-2011 10:40:02 13.9 C 61 % 6.51 C
175 18-10-2011 10:52:02 14.1 C 59 % 6.22 C
Sensor: Nr:Datum:Temp:Feuchte:Taupunkt:
Aussen-T/F 176 18-10-2011 11:04:01 14.7 C 54 % 5.5 C
177 18-10-2011 11:16:02 15.1 C 51 % 5.05 C
178 18-10-2011 11:28:02 15.2 C 50 % 4.86 C
179 18-10-2011 11:40:02 15.6 C 50 % 5.23 C
180 18-10-2011 11:52:01 16.2 C 49 % 5.49 C
181 18-10-2011 12:04:02 16.6 C 49 % 5.85 C
182 18-10-2011 12:16:01 16.6 C 49 % 5.85 C
183 18-10-2011 12:28:01 16.7 C 51 % 6.52 C
184 18-10-2011 12:40:01 16.4 C 49 % 5.67 C
185 18-10-2011 12:52:01 16.6 C 48 % 5.56 C
186 18-10-2011 13:04:02 17.2 C 48 % 6.11 C
187 18-10-2011 13:16:01 17.2 C 47 % 5.8 C
188 18-10-2011 13:28:01 17.2 C 47 % 5.8 C
189 18-10-2011 13:40:01 16.8 C 48 % 5.74 C
190 18-10-2011 13:52:01 16.7 C 48 % 5.65 C
191 18-10-2011 14:04:02 16.4 C 48 % 5.37 C
192 18-10-2011 14:16:02 15.9 C 51 % 5.79 C
193 18-10-2011 14:28:02 11.2 C 63 % 4.43 C
194 18-10-2011 14:40:01 10.5 C 69 % 5.06 C
195 18-10-2011 14:52:02 9.9 C 72 % 5.1 C
196 18-10-2011 15:04:01 9.6 C 74 % 5.2 C
197 18-10-2011 15:16:02 9 C 78 % 5.38 C
198 18-10-2011 15:28:02 8.8 C 82 % 5.9 C
199 18-10-2011 15:40:01 8.6 C 83 % 5.88 C
200 18-10-2011 15:52:02 8.5 C 84 % 5.96 C
Sensor: Nr:Datum:Temp:Feuchte:Taupunkt:
Aussen-T/F 201 18-10-2011 16:04:02 8.5 C 85 % 6.13 C
202 18-10-2011 16:16:02 8.4 C 85 % 6.03 C
203 18-10-2011 16:28:02 8.4 C 86 % 6.2 C
204 18-10-2011 16:40:02 8.2 C 86 % 6 C
205 18-10-2011 16:52:01 8.2 C 87 % 6.17 C
206 18-10-2011 17:04:02 8.2 C 87 % 6.17 C
207 18-10-2011 17:16:01 8.3 C 87 % 6.27 C
208 18-10-2011 17:28:01 8.3 C 87 % 6.27 C
209 18-10-2011 17:40:01 8.2 C 88 % 6.33 C
210 18-10-2011 17:52:01 8.2 C 88 % 6.33 C
211 18-10-2011 18:04:02 8.1 C 89 % 6.4 C
212 18-10-2011 18:16:02 7.9 C 89 % 6.2 C
213 18-10-2011 18:28:02 7.8 C 89 % 6.1 C
214 18-10-2011 18:40:01 7.6 C 89 % 5.91 C
215 18-10-2011 18:52:02 7.6 C 89 % 5.91 C
216 18-10-2011 19:04:01 7.5 C 89 % 5.81 C
217 18-10-2011 19:16:02 7.5 C 89 % 5.81 C
218 18-10-2011 19:28:03 7.5 C 89 % 5.81 C
219 18-10-2011 19:40:01 7.7 C 88 % 5.84 C
220 18-10-2011 19:52:02 7.7 C 88 % 5.84 C
221 18-10-2011 20:04:02 7.6 C 88 % 5.74 C
222 18-10-2011 20:16:02 7.6 C 87 % 5.58 C
223 18-10-2011 20:28:02 7.6 C 86 % 5.41 C
224 18-10-2011 20:40:02 7.5 C 85 % 5.15 C
225 18-10-2011 20:52:02 7.4 C 86 % 5.22 C
Sensor: Nr:Datum:Temp:Feuchte:Taupunkt:
Aussen-T/F 226 18-10-2011 21:04:02 7.5 C 86 % 5.31 C
227 18-10-2011 21:16:01 7.5 C 86 % 5.31 C
228 18-10-2011 21:28:01 7.4 C 87 % 5.38 C
229 18-10-2011 21:40:02 7.3 C 87 % 5.28 C
230 18-10-2011 21:52:02 7.3 C 87 % 5.28 C
231 18-10-2011 22:05:03 7.4 C 87 % 5.38 C
232 18-10-2011 22:17:03 7.4 C 86 % 5.22 C
233 18-10-2011 22:29:03 7.3 C 85 % 4.95 C
234 18-10-2011 22:41:03 7.4 C 84 % 4.88 C
235 18-10-2011 22:53:03 7.7 C 83 % 5 C
236 18-10-2011 23:05:03 7.6 C 82 % 4.73 C
237 18-10-2011 23:17:03 7.7 C 81 % 4.65 C
238 18-10-2011 23:29:03 7.6 C 81 % 4.55 C
239 18-10-2011 23:41:03 7.7 C 81 % 4.65 C
240 18-10-2011 23:53:03 7.8 C 80 % 4.57 C
241 19-10-2011 00:05:03 7.9 C 79 % 4.49 C
242 19-10-2011 00:17:03 7.8 C 79 % 4.39 C
243 19-10-2011 00:29:03 7.6 C 81 % 4.55 C
244 19-10-2011 00:41:03 7.9 C 79 % 4.49 C
245 19-10-2011 00:53:03 7.8 C 79 % 4.39 C
246 19-10-2011 01:05:04 7.8 C 80 % 4.57 C
247 19-10-2011 01:17:04 7.7 C 80 % 4.47 C
248 19-10-2011 01:29:04 8.1 C 78 % 4.5 C
249 19-10-2011 01:41:04 8 C 77 % 4.22 C
250 19-10-2011 01:53:04 7.7 C 80 % 4.47 C
Sensor: Nr:Datum:Temp:Feuchte:Taupunkt:
Aussen-T/F 251 19-10-2011 02:05:04 7.7 C 81 % 4.65 C
252 19-10-2011 02:17:04 7.8 C 80 % 4.57 C
253 19-10-2011 02:29:04 7.7 C 81 % 4.65 C
254 19-10-2011 02:41:04 7.6 C 82 % 4.73 C
255 19-10-2011 02:53:04 7.7 C 82 % 4.83 C
256 19-10-2011 03:05:04 7.8 C 82 % 4.92 C
257 19-10-2011 03:17:04 7.8 C 80 % 4.57 C
258 19-10-2011 03:29:04 7.8 C 78 % 4.21 C
259 19-10-2011 03:41:04 7.9 C 77 % 4.12 C
260 19-10-2011 03:53:04 7.7 C 76 % 3.75 C
261 19-10-2011 04:05:04 7.4 C 79 % 4 C
262 19-10-2011 04:17:04 7.3 C 80 % 4.09 C
263 19-10-2011 04:29:04 7.3 C 79 % 3.91 C
264 19-10-2011 04:41:04 7.8 C 75 % 3.65 C
265 19-10-2011 04:53:04 7.8 C 72 % 3.08 C
266 19-10-2011 05:05:04 7.8 C 72 % 3.08 C
267 19-10-2011 05:17:04 7.9 C 72 % 3.17 C
268 19-10-2011 05:29:04 7.8 C 72 % 3.08 C
269 19-10-2011 05:41:05 7.7 C 72 % 2.98 C
270 19-10-2011 05:53:05 7.3 C 75 % 3.17 C
271 19-10-2011 06:05:05 7.5 C 74 % 3.17 C
272 19-10-2011 06:17:05 7.5 C 73 % 2.98 C
273 19-10-2011 06:29:05 7.3 C 73 % 2.79 C
274 19-10-2011 06:41:05 7.4 C 73 % 2.89 C
275 19-10-2011 06:53:05 7.4 C 73 % 2.89 C
Sensor: Nr:Datum:Temp:Feuchte:Taupunkt:
Aussen-T/F 276 19-10-2011 07:05:05 7.3 C 74 % 2.98 C
277 19-10-2011 07:17:02 7.3 C 73 % 2.79 C
278 19-10-2011 07:29:02 7.3 C 73 % 2.79 C
279 19-10-2011 07:41:02 7.2 C 73 % 2.69 C
280 19-10-2011 07:53:02 7.2 C 73 % 2.69 C
281 19-10-2011 08:05:02 7.4 C 72 % 2.69 C
282 19-10-2011 08:17:01 7.5 C 71 % 2.59 C
283 19-10-2011 08:29:01 7.7 C 70 % 2.58 C
284 19-10-2011 08:41:02 7.7 C 71 % 2.78 C
285 19-10-2011 08:53:02 7.8 C 71 % 2.88 C
286 19-10-2011 09:05:02 7.7 C 71 % 2.78 C
287 19-10-2011 09:17:01 7.7 C 71 % 2.78 C
288 19-10-2011 09:29:01 7.9 C 70 % 2.78 C
289 19-10-2011 09:41:02 8.1 C 69 % 2.77 C
290 19-10-2011 09:53:01 8.1 C 68 % 2.56 C
291 19-10-2011 10:05:02 8.2 C 68 % 2.66 C
292 19-10-2011 10:17:02 8.5 C 68 % 2.94 C
293 19-10-2011 10:29:02 8.8 C 66 % 2.81 C
294 19-10-2011 10:41:02 8.8 C 65 % 2.59 C
295 19-10-2011 10:53:02 8.9 C 66 % 2.9 C
296 19-10-2011 11:05:01 9 C 66 % 3 C
297 19-10-2011 11:17:02 9.1 C 64 % 2.66 C
298 19-10-2011 11:29:02 9.1 C 63 % 2.44 C
299 19-10-2011 11:41:01 9.4 C 62 % 2.5 C
300 19-10-2011 11:53:01 9.6 C 61 % 2.46 C
Sensor: Nr:Datum:Temp:Feuchte:Taupunkt:
Aussen-T/F 301 19-10-2011 12:05:01 10.3 C 58 % 2.41 C
302 19-10-2011 12:17:01 10 C 58 % 2.13 C
303 19-10-2011 12:29:01 10.3 C 57 % 2.17 C
304 19-10-2011 12:41:02 10.7 C 56 % 2.29 C
305 19-10-2011 12:53:02 11 C 55 % 2.32 C
306 19-10-2011 13:05:02 10.6 C 57 % 2.45 C
307 19-10-2011 13:17:01 11.4 C 53 % 2.17 C
308 19-10-2011 13:29:01 11.4 C 52 % 1.91 C
309 19-10-2011 13:41:02 10.6 C 63 % 3.86 C
310 19-10-2011 13:53:02 10.7 C 58 % 2.79 C
311 19-10-2011 14:05:03 10.7 C 58 % 2.79 C
312 19-10-2011 14:17:02 11 C 57 % 2.82 C
313 19-10-2011 14:29:02 11.6 C 55 % 2.88 C
314 19-10-2011 14:41:02 11.4 C 52 % 1.91 C
315 19-10-2011 14:53:01 11.4 C 54 % 2.44 C
316 19-10-2011 15:05:02 12 C 52 % 2.46 C
317 19-10-2011 15:17:01 12.7 C 47 % 1.69 C
318 19-10-2011 15:29:01 12 C 47 % 1.05 C
319 19-10-2011 15:41:02 12.5 C 47 % 1.51 C
320 19-10-2011 15:53:01 13.1 C 45 % 1.45 C
321 19-10-2011 16:05:02 12.5 C 48 % 1.8 C
322 19-10-2011 16:17:02 12 C 48 % 1.34 C
323 19-10-2011 16:29:02 11.9 C 49 % 1.54 C
324 19-10-2011 16:41:01 11.2 C 52 % 1.72 C
325 19-10-2011 16:53:02 9.8 C 61 % 2.65 C
Sensor: Nr:Datum:Temp:Feuchte:Taupunkt:
Aussen-T/F 326 19-10-2011 17:05:01 9 C 70 % 3.83 C
327 19-10-2011 17:17:02 9.2 C 70 % 4.02 C
328 19-10-2011 17:29:02 9.8 C 66 % 3.76 C
329 19-10-2011 17:41:01 10.4 C 55 % 1.76 C
330 19-10-2011 17:53:02 9.8 C 55 % 1.2 C
331 19-10-2011 18:05:02 8.1 C 65 % 1.93 C
332 19-10-2011 18:17:02 7.7 C 68 % 2.18 C
333 19-10-2011 18:29:02 7 C 70 % 1.91 C
334 19-10-2011 18:41:02 6.7 C 75 % 2.59 C
335 19-10-2011 18:53:01 6.5 C 76 % 2.58 C
336 19-10-2011 19:05:02 6.5 C 76 % 2.58 C
337 19-10-2011 19:17:01 7 C 75 % 2.88 C
338 19-10-2011 19:29:01 7.5 C 72 % 2.79 C
339 19-10-2011 19:41:02 7.1 C 73 % 2.6 C
340 19-10-2011 19:53:01 6.7 C 78 % 3.14 C
341 19-10-2011 20:05:02 6.2 C 80 % 3.01 C
342 19-10-2011 20:17:02 6.1 C 81 % 3.09 C
343 19-10-2011 20:29:02 6.2 C 82 % 3.36 C
344 19-10-2011 20:41:02 6.3 C 82 % 3.46 C
345 19-10-2011 20:53:02 6.3 C 83 % 3.63 C
346 19-10-2011 21:05:01 6.5 C 84 % 4 C
347 19-10-2011 21:17:02 6 C 83 % 3.34 C
348 19-10-2011 21:29:02 5.6 C 83 % 2.95 C
349 19-10-2011 21:41:01 5 C 84 % 2.53 C
350 19-10-2011 21:53:02 5 C 85 % 2.69 C
Sensor: Nr:Datum:Temp:Feuchte:Taupunkt:
Aussen-T/F 351 19-10-2011 22:05:01 5.3 C 86 % 3.15 C
352 19-10-2011 22:17:02 4.8 C 86 % 2.66 C
353 19-10-2011 22:29:02 5.3 C 86 % 3.15 C
354 19-10-2011 22:41:01 5 C 86 % 2.86 C
355 19-10-2011 22:53:01 5 C 85 % 2.69 C
356 19-10-2011 23:05:01 5.1 C 86 % 2.96 C
357 19-10-2011 23:17:02 5.3 C 85 % 2.99 C
358 19-10-2011 23:29:02 5.2 C 84 % 2.72 C
359 19-10-2011 23:41:01 4.8 C 85 % 2.5 C
360 19-10-2011 23:53:02 5.2 C 85 % 2.89 C
361 20-10-2011 00:05:02 5.4 C 84 % 2.92 C
362 20-10-2011 00:17:02 5.7 C 83 % 3.04 C
363 20-10-2011 00:29:02 5.9 C 82 % 3.07 C
364 20-10-2011 00:41:02 6.1 C 80 % 2.92 C
365 20-10-2011 00:53:02 6 C 78 % 2.46 C
366 20-10-2011 01:05:02 6 C 79 % 2.64 C
367 20-10-2011 01:17:02 6.2 C 77 % 2.48 C
368 20-10-2011 01:29:03 5.8 C 79 % 2.45 C
369 20-10-2011 01:41:02 5.7 C 78 % 2.17 C
370 20-10-2011 01:53:02 5.7 C 77 % 1.99 C
371 20-10-2011 02:05:01 5.7 C 76 % 1.81 C
372 20-10-2011 02:17:02 5.4 C 76 % 1.52 C
373 20-10-2011 02:29:02 5.1 C 78 % 1.59 C
374 20-10-2011 02:41:02 4.3 C 82 % 1.51 C
375 20-10-2011 02:54:04 3.5 C 84 % 1.06 C
Sensor: Nr:Datum:Temp:Feuchte:Taupunkt:
Aussen-T/F 376 20-10-2011 03:06:04 3.3 C 85 % 1.03 C
377 20-10-2011 03:18:04 2.8 C 87 % 0.86 C
378 20-10-2011 03:30:04 2.5 C 88 % 0.72 C
379 20-10-2011 03:42:01 2.6 C 89 % 0.97 C
380 20-10-2011 03:54:02 3.8 C 89 % 2.16 C
381 20-10-2011 04:06:01 4.2 C 87 % 2.23 C
382 20-10-2011 04:18:01 4.1 C 85 % 1.81 C
383 20-10-2011 04:30:01 4.3 C 84 % 1.84 C
384 20-10-2011 04:42:02 3.9 C 84 % 1.45 C
385 20-10-2011 04:54:02 3.3 C 85 % 1.03 C
386 20-10-2011 05:06:02 3.1 C 86 % 0.99 C
387 20-10-2011 05:18:02 3.9 C 88 % 2.1 C
388 20-10-2011 05:30:02 4.2 C 87 % 2.23 C
389 20-10-2011 05:42:02 4.3 C 86 % 2.17 C
390 20-10-2011 05:54:02 4.3 C 86 % 2.17 C
391 20-10-2011 06:06:02 4.5 C 85 % 2.2 C
392 20-10-2011 06:18:02 4.6 C 84 % 2.14 C
393 20-10-2011 06:30:02 4.8 C 84 % 2.33 C
394 20-10-2011 06:42:02 4.8 C 83 % 2.16 C
395 20-10-2011 06:54:02 4.8 C 83 % 2.16 C
396 20-10-2011 07:06:02 4.8 C 83 % 2.16 C
397 20-10-2011 07:18:02 4.8 C 83 % 2.16 C
398 20-10-2011 07:30:02 4.6 C 83 % 1.97 C
399 20-10-2011 07:42:02 4.6 C 84 % 2.14 C
400 20-10-2011 07:54:02 4.7 C 84 % 2.23 C
Sensor: Nr:Datum:Temp:Feuchte:Taupunkt:
Aussen-T/F 401 20-10-2011 08:06:02 4.5 C 84 % 2.04 C
402 20-10-2011 08:18:02 4.4 C 85 % 2.11 C
403 20-10-2011 08:30:03 4.8 C 85 % 2.5 C
404 20-10-2011 08:42:01 5.1 C 82 % 2.29 C
405 20-10-2011 08:54:02 5 C 80 % 1.84 C
406 20-10-2011 09:06:01 4.4 C 81 % 1.43 C
407 20-10-2011 09:18:01 3.8 C 84 % 1.35 C
408 20-10-2011 09:30:01 3.8 C 86 % 1.68 C
409 20-10-2011 09:42:02 4.1 C 86 % 1.97 C
410 20-10-2011 09:54:02 4.1 C 87 % 2.14 C
411 20-10-2011 10:06:02 4.2 C 87 % 2.23 C
412 20-10-2011 10:18:01 4.4 C 88 % 2.59 C
413 20-10-2011 10:30:01 5.4 C 85 % 3.09 C
414 20-10-2011 10:42:02 5.9 C 81 % 2.9 C
415 20-10-2011 10:54:02 7 C 72 % 2.31 C
416 20-10-2011 11:06:02 7.5 C 67 % 1.78 C
417 20-10-2011 11:18:01 7.1 C 68 % 1.61 C
418 20-10-2011 11:30:01 8 C 65 % 1.83 C
419 20-10-2011 11:42:02 8.6 C 60 % 1.29 C
420 20-10-2011 11:54:01 8.7 C 59 % 1.15 C
421 20-10-2011 12:06:02 9.2 C 56 % 0.89 C
422 20-10-2011 12:18:02 9.1 C 58 % 1.29 C
423 20-10-2011 12:30:02 8.4 C 61 % 1.33 C
424 20-10-2011 12:42:02 9.4 C 58 % 1.57 C
425 20-10-2011 12:54:02 9.1 C 57 % 1.04 C
Sensor: Nr:Datum:Temp:Feuchte:Taupunkt:
Aussen-T/F 426 20-10-2011 13:06:01 9.1 C 57 % 1.04 C
427 20-10-2011 13:18:02 10 C 53 % 0.87 C
428 20-10-2011 13:30:02 13.1 C 45 % 1.45 C
429 20-10-2011 13:42:01 11 C 48 % 0.43 C
430 20-10-2011 13:54:02 8.9 C 59 % 1.34 C
431 20-10-2011 14:06:02 7.6 C 70 % 2.49 C
432 20-10-2011 14:18:02 7.2 C 75 % 3.07 C
433 20-10-2011 14:30:02 7.1 C 81 % 4.07 C
434 20-10-2011 14:42:02 7.3 C 84 % 4.78 C
435 20-10-2011 14:54:02 7.7 C 85 % 5.34 C
436 20-10-2011 15:06:02 8.4 C 84 % 5.86 C
437 20-10-2011 15:18:01 9 C 70 % 3.83 C
438 20-10-2011 15:30:01 8.7 C 68 % 3.13 C
439 20-10-2011 15:42:02 7.9 C 77 % 4.12 C
440 20-10-2011 15:54:01 7.5 C 80 % 4.28 C
441 20-10-2011 16:06:02 7.4 C 82 % 4.53 C
442 20-10-2011 16:18:02 9 C 78 % 5.38 C
443 20-10-2011 16:30:02 9.8 C 66 % 3.76 C
444 20-10-2011 16:42:02 10.4 C 62 % 3.44 C
445 20-10-2011 16:54:01 10.1 C 60 % 2.7 C
446 20-10-2011 17:06:02 9.6 C 61 % 2.46 C
447 20-10-2011 17:18:02 8.5 C 67 % 2.73 C
448 20-10-2011 17:30:02 8.1 C 74 % 3.75 C
449 20-10-2011 17:42:01 7.7 C 78 % 4.11 C
450 20-10-2011 17:54:02 6.9 C 80 % 3.7 C
Sensor: Nr:Datum:Temp:Feuchte:Taupunkt:
Aussen-T/F 451 20-10-2011 18:06:01 6.6 C 80 % 3.4 C
452 20-10-2011 18:18:02 6.3 C 81 % 3.29 C
453 20-10-2011 18:30:02 6.1 C 81 % 3.09 C
454 20-10-2011 18:42:02 5.5 C 83 % 2.85 C
455 20-10-2011 18:54:02 5.2 C 85 % 2.89 C
456 20-10-2011 19:06:02 5.1 C 86 % 2.96 C
457 20-10-2011 19:18:02 5 C 86 % 2.86 C
458 20-10-2011 19:30:02 5 C 87 % 3.02 C
459 20-10-2011 19:42:02 4.5 C 88 % 2.69 C
460 20-10-2011 19:54:01 3.8 C 89 % 2.16 C
461 20-10-2011 20:06:02 3.4 C 88 % 1.61 C
462 20-10-2011 20:18:01 3.4 C 88 % 1.61 C
463 20-10-2011 20:30:01 3.1 C 89 % 1.47 C
464 20-10-2011 20:42:01 3.7 C 89 % 2.06 C
465 20-10-2011 20:54:01 3.4 C 90 % 1.92 C
466 20-10-2011 21:06:02 2.4 C 90 % 0.93 C
467 20-10-2011 21:18:02 2.1 C 90 % 0.64 C
468 20-10-2011 21:30:02 2.2 C 90 % 0.73 C
469 20-10-2011 21:42:01 2.2 C 90 % 0.73 C
470 20-10-2011 21:54:02 2 C 90 % 0.54 C
471 20-10-2011 22:06:01 2 C 90 % 0.54 C
472 20-10-2011 22:18:02 1.7 C 91 % 0.39 C
473 20-10-2011 22:30:02 1.5 C 91 % 0.19 C
474 20-10-2011 22:43:02 1.4 C 91 % 0.1 C
475 20-10-2011 22:55:02 1.3 C 91 % 0 C
Sensor: Nr:Datum:Temp:Feuchte:Taupunkt:
Aussen-T/F 476 20-10-2011 23:07:02 1.1 C 91 % -0.2 C
477 20-10-2011 23:19:02 1 C 91 % -0.3 C
478 20-10-2011 23:31:02 0.7 C 91 % -0.6 C
479 20-10-2011 23:43:03 0.9 C 91 % -0.4 C
480 20-10-2011 23:55:03 0.6 C 91 % -0.7 C
481 21-10-2011 00:07:03 0.5 C 91 % -0.79 C
482 21-10-2011 00:19:03 0.5 C 91 % -0.79 C
483 21-10-2011 00:31:03 0.3 C 91 % -0.99 C
484 21-10-2011 00:43:03 0.4 C 91 % -0.89 C
485 21-10-2011 00:55:03 0.5 C 92 % -0.65 C
486 21-10-2011 01:07:03 0.1 C 92 % -1.04 C
487 21-10-2011 01:19:03 -0.1 C 91 % -1.39 C
488 21-10-2011 01:31:03 -0.2 C 91 % -1.49 C
489 21-10-2011 01:43:03 0.7 C 92 % -0.45 C
490 21-10-2011 01:55:03 0.8 C 92 % -0.35 C
491 21-10-2011 02:07:03 1.7 C 92 % 0.54 C
492 21-10-2011 02:19:03 2.4 C 92 % 1.24 C
493 21-10-2011 02:31:03 2.6 C 93 % 1.59 C
494 21-10-2011 02:43:03 2.7 C 93 % 1.68 C
495 21-10-2011 02:55:03 2.6 C 93 % 1.59 C
496 21-10-2011 03:07:03 2.6 C 93 % 1.59 C
497 21-10-2011 03:19:03 2.6 C 93 % 1.59 C
498 21-10-2011 03:31:03 2.5 C 93 % 1.49 C
499 21-10-2011 03:43:03 2.5 C 93 % 1.49 C
500 21-10-2011 03:55:04 2.5 C 93 % 1.49 C
Sensor: Nr:Datum:Temp:Feuchte:Taupunkt:
Aussen-T/F 501 21-10-2011 04:07:04 2.3 C 93 % 1.29 C
502 21-10-2011 04:19:04 2.2 C 93 % 1.19 C
503 21-10-2011 04:31:04 2.2 C 93 % 1.19 C
504 21-10-2011 04:43:04 2.2 C 93 % 1.19 C
505 21-10-2011 04:55:04 2 C 94 % 1.14 C
506 21-10-2011 05:07:04 2.1 C 94 % 1.24 C
507 21-10-2011 05:19:04 2.2 C 94 % 1.34 C
508 21-10-2011 05:31:04 2.2 C 94 % 1.34 C
509 21-10-2011 05:43:04 2.3 C 94 % 1.44 C
510 21-10-2011 05:55:04 2.2 C 94 % 1.34 C
511 21-10-2011 06:07:04 2.1 C 94 % 1.24 C
512 21-10-2011 06:19:04 2.2 C 94 % 1.34 C
513 21-10-2011 06:31:04 2.1 C 94 % 1.24 C
514 21-10-2011 06:43:04 2 C 94 % 1.14 C
515 21-10-2011 06:55:04 2 C 94 % 1.14 C
516 21-10-2011 07:07:04 2 C 94 % 1.14 C
517 21-10-2011 07:19:04 2 C 94 % 1.14 C
518 21-10-2011 07:31:04 1.9 C 94 % 1.04 C
519 21-10-2011 07:43:04 1.9 C 94 % 1.04 C
520 21-10-2011 07:55:02 1.7 C 94 % 0.84 C
521 21-10-2011 08:07:02 1.7 C 94 % 0.84 C
522 21-10-2011 08:19:01 1.8 C 95 % 1.09 C
523 21-10-2011 08:31:02 2 C 94 % 1.14 C
524 21-10-2011 08:43:02 1.9 C 95 % 1.19 C
525 21-10-2011 08:55:02 1.9 C 95 % 1.19 C
Sensor: Nr:Datum:Temp:Feuchte:Taupunkt:
Aussen-T/F 526 21-10-2011 09:07:02 2 C 94 % 1.14 C
527 21-10-2011 09:19:02 2.1 C 94 % 1.24 C
528 21-10-2011 09:31:02 1.9 C 95 % 1.19 C
529 21-10-2011 09:43:02 1.9 C 95 % 1.19 C
530 21-10-2011 09:55:02 2 C 94 % 1.14 C
531 21-10-2011 10:07:02 2.1 C 94 % 1.24 C
532 21-10-2011 10:19:02 2.1 C 94 % 1.24 C
533 21-10-2011 10:31:01 2.2 C 94 % 1.34 C
534 21-10-2011 10:43:01 2.4 C 94 % 1.54 C
535 21-10-2011 10:55:02 2.5 C 94 % 1.63 C
536 21-10-2011 11:07:01 2.9 C 94 % 2.03 C
537 21-10-2011 11:19:02 3.1 C 93 % 2.08 C
538 21-10-2011 11:31:02 3.5 C 93 % 2.48 C
539 21-10-2011 11:43:02 3.4 C 93 % 2.38 C
540 21-10-2011 11:55:02 4.1 C 92 % 2.92 C
541 21-10-2011 12:07:03 4.3 C 91 % 2.96 C
542 21-10-2011 12:19:02 4.4 C 89 % 2.75 C
543 21-10-2011 12:31:02 4.6 C 88 % 2.79 C
544 21-10-2011 12:43:03 4.8 C 87 % 2.82 C
545 21-10-2011 12:55:01 4.6 C 85 % 2.3 C
546 21-10-2011 13:07:02 4.8 C 83 % 2.16 C
547 21-10-2011 13:19:01 5.7 C 80 % 2.53 C
548 21-10-2011 13:31:01 5.7 C 79 % 2.35 C
549 21-10-2011 13:43:01 6.8 C 74 % 2.5 C
550 21-10-2011 13:55:01 7 C 72 % 2.31 C
Sensor: Nr:Datum:Temp:Feuchte:Taupunkt:
Aussen-T/F 551 21-10-2011 14:07:01 6.8 C 73 % 2.31 C
552 21-10-2011 14:19:02 6.1 C 75 % 2.01 C
553 21-10-2011 14:31:01 5.9 C 79 % 2.54 C
554 21-10-2011 14:43:01 6.5 C 81 % 3.48 C
555 21-10-2011 14:55:02 6.3 C 80 % 3.11 C
556 21-10-2011 15:07:01 6.3 C 80 % 3.11 C
557 21-10-2011 15:19:01 6.5 C 81 % 3.48 C
558 21-10-2011 15:31:02 6.8 C 81 % 3.77 C
559 21-10-2011 15:43:02 6.7 C 81 % 3.68 C
560 21-10-2011 15:55:02 6.8 C 82 % 3.95 C
561 21-10-2011 16:07:02 7 C 81 % 3.97 C
562 21-10-2011 16:19:02 7 C 81 % 3.97 C
563 21-10-2011 16:31:02 7.1 C 81 % 4.07 C
564 21-10-2011 16:43:02 7.4 C 82 % 4.53 C
565 21-10-2011 16:55:02 9.8 C 73 % 5.2 C
566 21-10-2011 17:07:02 10.5 C 61 % 3.31 C
567 21-10-2011 17:19:02 10.4 C 60 % 2.98 C
568 21-10-2011 17:31:02 10.3 C 61 % 3.12 C
569 21-10-2011 17:43:02 10.2 C 62 % 3.25 C
570 21-10-2011 17:55:01 8.1 C 65 % 1.93 C
571 21-10-2011 18:07:01 5.9 C 74 % 1.63 C
572 21-10-2011 18:19:02 5.1 C 79 % 1.77 C
573 21-10-2011 18:31:01 4.3 C 81 % 1.34 C
574 21-10-2011 18:43:01 4 C 80 % 0.87 C
575 21-10-2011 18:55:02 3.7 C 82 % 0.92 C
Sensor: Nr:Datum:Temp:Feuchte:Taupunkt:
Aussen-T/F 576 21-10-2011 19:07:01 3.5 C 82 % 0.72 C
577 21-10-2011 19:19:01 3.4 C 83 % 0.79 C
578 21-10-2011 19:31:01 3.2 C 82 % 0.43 C
579 21-10-2011 19:43:01 2.8 C 83 % 0.21 C
580 21-10-2011 19:55:02 2.4 C 84 % -0.02 C
581 21-10-2011 20:07:02 2 C 85 % -0.25 C
582 21-10-2011 20:19:02 1.7 C 86 % -0.38 C
583 21-10-2011 20:31:02 1.4 C 86 % -0.68 C
584 21-10-2011 20:43:02 1.5 C 87 % -0.42 C
585 21-10-2011 20:55:01 1.8 C 88 % 0.03 C
586 21-10-2011 21:07:02 1.8 C 89 % 0.19 C
587 21-10-2011 21:19:01 1.3 C 89 % -0.31 C
588 21-10-2011 21:31:01 1.1 C 89 % -0.51 C
589 21-10-2011 21:43:01 0.8 C 90 % -0.65 C
590 21-10-2011 21:55:01 0.6 C 90 % -0.85 C
591 21-10-2011 22:07:02 1.1 C 90 % -0.35 C
592 21-10-2011 22:20:02 0.4 C 90 % -1.04 C
593 21-10-2011 22:32:02 0.6 C 91 % -0.7 C
594 21-10-2011 22:44:02 0.2 C 90 % -1.24 C
595 21-10-2011 22:56:02 0.5 C 91 % -0.79 C
596 21-10-2011 23:08:02 0.6 C 91 % -0.7 C
597 21-10-2011 23:20:02 0.4 C 91 % -0.89 C
598 21-10-2011 23:32:02 0.6 C 92 % -0.55 C
599 21-10-2011 23:44:03 0.1 C 91 % -1.19 C
600 21-10-2011 23:56:03 0.1 C 91 % -1.19 C
Sensor: Nr:Datum:Temp:Feuchte:Taupunkt:
Aussen-T/F 601 22-10-2011 00:08:03 -0.3 C 91 % -1.59 C
602 22-10-2011 00:20:03 -0.2 C 91 % -1.49 C
603 22-10-2011 00:32:03 0.1 C 92 % -1.04 C
604 22-10-2011 00:44:03 -0.3 C 92 % -1.44 C
605 22-10-2011 00:56:03 0.1 C 92 % -1.04 C
606 22-10-2011 01:08:03 -0.2 C 92 % -1.34 C
607 22-10-2011 01:20:03 0.3 C 92 % -0.84 C
608 22-10-2011 01:32:03 0.6 C 92 % -0.55 C
609 22-10-2011 01:44:03 0.8 C 93 % -0.2 C
610 22-10-2011 01:56:03 0.6 C 93 % -0.4 C
611 22-10-2011 02:08:03 1 C 93 % 0 C
612 22-10-2011 02:20:03 1.5 C 93 % 0.49 C
613 22-10-2011 02:32:03 1.5 C 93 % 0.49 C
614 22-10-2011 02:44:03 1.4 C 93 % 0.4 C
615 22-10-2011 02:56:03 1.4 C 93 % 0.4 C
616 22-10-2011 03:08:03 1.3 C 93 % 0.3 C
617 22-10-2011 03:20:03 1.3 C 93 % 0.3 C
618 22-10-2011 03:32:03 1.4 C 94 % 0.54 C
619 22-10-2011 03:44:04 1.3 C 94 % 0.44 C
620 22-10-2011 03:56:04 1.3 C 94 % 0.44 C
621 22-10-2011 04:08:04 1.3 C 94 % 0.44 C
622 22-10-2011 04:20:04 1.2 C 94 % 0.34 C
623 22-10-2011 04:32:04 1.4 C 94 % 0.54 C
624 22-10-2011 04:44:04 1.6 C 94 % 0.74 C
625 22-10-2011 04:56:04 1.7 C 94 % 0.84 C
Sensor: Nr:Datum:Temp:Feuchte:Taupunkt:
Aussen-T/F 626 22-10-2011 05:08:04 1.6 C 94 % 0.74 C
627 22-10-2011 05:20:04 1.5 C 94 % 0.64 C
628 22-10-2011 05:32:04 1.5 C 94 % 0.64 C
629 22-10-2011 05:44:04 1.5 C 94 % 0.64 C
630 22-10-2011 05:56:04 1.2 C 93 % 0.2 C
631 22-10-2011 06:08:04 1.1 C 93 % 0.1 C
632 22-10-2011 06:20:04 1.3 C 93 % 0.3 C
633 22-10-2011 06:32:04 1.4 C 93 % 0.4 C
634 22-10-2011 06:44:04 1.4 C 93 % 0.4 C
635 22-10-2011 06:56:04 1.4 C 93 % 0.4 C
636 22-10-2011 07:08:04 1.5 C 93 % 0.49 C
637 22-10-2011 07:20:04 1.6 C 93 % 0.59 C
638 22-10-2011 07:32:04 1.8 C 93 % 0.79 C
639 22-10-2011 07:44:04 1.8 C 93 % 0.79 C
640 22-10-2011 07:56:05 1.7 C 93 % 0.69 C
641 22-10-2011 08:08:05 1.7 C 93 % 0.69 C
642 22-10-2011 08:20:02 1.7 C 93 % 0.69 C
643 22-10-2011 08:32:02 1.8 C 93 % 0.79 C
644 22-10-2011 08:44:02 1.9 C 93 % 0.89 C
645 22-10-2011 08:56:01 2 C 92 % 0.84 C
646 22-10-2011 09:08:01 2 C 91 % 0.69 C
647 22-10-2011 09:20:02 1.9 C 91 % 0.59 C
648 22-10-2011 09:32:01 1.7 C 90 % 0.24 C
649 22-10-2011 09:44:01 2.1 C 89 % 0.48 C
650 22-10-2011 09:56:01 2.3 C 89 % 0.68 C
Sensor: Nr:Datum:Temp:Feuchte:Taupunkt:
Aussen-T/F 651 22-10-2011 10:08:01 2.5 C 87 % 0.56 C
652 22-10-2011 10:20:02 2.7 C 86 % 0.6 C
653 22-10-2011 10:32:01 2.7 C 84 % 0.27 C
654 22-10-2011 10:44:01 2.8 C 83 % 0.21 C
655 22-10-2011 10:56:02 3.1 C 82 % 0.33 C
656 22-10-2011 11:08:02 3.2 C 82 % 0.43 C
657 22-10-2011 11:20:02 3.2 C 82 % 0.43 C
658 22-10-2011 11:32:02 3.1 C 83 % 0.5 C
659 22-10-2011 11:44:02 3.3 C 84 % 0.86 C
660 22-10-2011 11:56:02 3.4 C 85 % 1.12 C
661 22-10-2011 12:08:02 3.8 C 86 % 1.68 C
662 22-10-2011 12:20:01 4.3 C 85 % 2.01 C
663 22-10-2011 12:32:02 4.9 C 83 % 2.26 C
664 22-10-2011 12:44:02 5.4 C 81 % 2.41 C
665 22-10-2011 12:56:02 5.3 C 80 % 2.14 C
666 22-10-2011 13:08:02 5.9 C 81 % 2.9 C
667 22-10-2011 13:20:01 7.7 C 78 % 4.11 C
668 22-10-2011 13:32:02 10.3 C 64 % 3.8 C
669 22-10-2011 13:44:02 8.9 C 61 % 1.8 C
670 22-10-2011 13:56:02 8.4 C 55 % -0.1 C
671 22-10-2011 14:08:02 7.4 C 62 % 0.61 C
672 22-10-2011 14:20:02 7.5 C 62 % 0.7 C
673 22-10-2011 14:32:02 7.7 C 61 % 0.67 C
674 22-10-2011 14:44:02 8.4 C 59 % 0.87 C
675 22-10-2011 14:56:02 8.3 C 57 % 0.3 C
Sensor: Nr:Datum:Temp:Feuchte:Taupunkt:
Aussen-T/F 676 22-10-2011 15:08:02 8.3 C 55 % -0.2 C
677 22-10-2011 15:20:02 8.8 C 57 % 0.76 C
678 22-10-2011 15:32:01 8.2 C 60 % 0.91 C
679 22-10-2011 15:44:01 8.5 C 55 % -0.01 C
680 22-10-2011 15:56:02 8.4 C 56 % 0.15 C
681 22-10-2011 16:08:01 8.5 C 54 % -0.26 C
682 22-10-2011 16:20:02 8.2 C 60 % 0.91 C
683 22-10-2011 16:32:02 8.6 C 61 % 1.52 C
684 22-10-2011 16:44:02 10.3 C 53 % 1.15 C
685 22-10-2011 16:56:02 13.2 C 46 % 1.85 C
686 22-10-2011 17:08:02 14.5 C 42 % 1.76 C
687 22-10-2011 17:20:02 12.9 C 43 % 0.64 C
688 22-10-2011 17:32:02 11.5 C 46 % 0.3 C
689 22-10-2011 17:44:02 10.3 C 50 % 0.35 C
690 22-10-2011 17:56:02 8.2 C 56 % -0.04 C
691 22-10-2011 18:08:02 6.4 C 68 % 0.94 C
692 22-10-2011 18:20:02 5.7 C 74 % 1.44 C
693 22-10-2011 18:32:02 5.2 C 75 % 1.14 C
694 22-10-2011 18:44:02 5 C 75 % 0.95 C
695 22-10-2011 18:56:01 5 C 74 % 0.76 C
696 22-10-2011 19:08:01 4.3 C 77 % 0.63 C
697 22-10-2011 19:20:00 4.1 C 79 % 0.79 C
698 22-10-2011 19:32:01 3.6 C 80 % 0.48 C
699 22-10-2011 19:44:01 3.1 C 81 % 0.16 C
700 22-10-2011 19:56:01 3.5 C 83 % 0.89 C
Sensor: Nr:Datum:Temp:Feuchte:Taupunkt:
Aussen-T/F 701 22-10-2011 20:08:01 2.9 C 84 % 0.47 C
702 22-10-2011 20:20:02 2.4 C 84 % -0.02 C
703 22-10-2011 20:32:01 1.9 C 86 % -0.19 C
704 22-10-2011 20:44:01 2.1 C 86 % 0.01 C
705 22-10-2011 20:56:02 2 C 87 % 0.07 C
706 22-10-2011 21:08:02 1.6 C 88 % -0.17 C
707 22-10-2011 21:20:02 1.2 C 88 % -0.56 C
708 22-10-2011 21:32:02 1 C 88 % -0.76 C
709 22-10-2011 21:44:02 0.8 C 89 % -0.8 C
710 22-10-2011 21:56:01 0.6 C 89 % -1 C
711 22-10-2011 22:08:01 1.1 C 89 % -0.51 C
712 22-10-2011 22:20:01 0.7 C 90 % -0.75 C
713 22-10-2011 22:32:01 0.8 C 91 % -0.5 C
714 22-10-2011 22:44:01 0.8 C 91 % -0.5 C
715 22-10-2011 22:56:02 0.8 C 91 % -0.5 C
716 22-10-2011 23:08:01 1.2 C 91 % -0.1 C
717 22-10-2011 23:20:02 0.7 C 91 % -0.6 C
718 22-10-2011 23:32:02 0.2 C 91 % -1.09 C
719 22-10-2011 23:44:02 -0.3 C 91 % -1.59 C
720 22-10-2011 23:56:02 -0.1 C 91 % -1.39 C
721 23-10-2011 00:08:03 -0.7 C 91 % -1.98 C
722 23-10-2011 00:20:02 -0.7 C 91 % -1.98 C
723 23-10-2011 00:32:03 -0.8 C 90 % -2.23 C
724 23-10-2011 00:44:03 -1 C 91 % -2.28 C
725 23-10-2011 00:56:02 -1 C 90 % -2.43 C
Sensor: Nr:Datum:Temp:Feuchte:Taupunkt:
Aussen-T/F 726 23-10-2011 01:08:02 -1 C 91 % -2.28 C
727 23-10-2011 01:20:02 -0.9 C 91 % -2.18 C
728 23-10-2011 01:32:02 -1 C 91 % -2.28 C
729 23-10-2011 01:44:02 -1.4 C 90 % -2.82 C
730 23-10-2011 01:56:01 -1.2 C 90 % -2.63 C
731 23-10-2011 02:08:02 -1.2 C 91 % -2.48 C
732 23-10-2011 02:20:01 -1.3 C 90 % -2.73 C
733 23-10-2011 02:32:02 -1.5 C 91 % -2.77 C
734 23-10-2011 02:44:02 -1.7 C 90 % -3.12 C
735 23-10-2011 02:56:01 -1.5 C 91 % -2.77 C
736 23-10-2011 03:08:01 -1 C 91 % -2.28 C
737 23-10-2011 03:20:01 -1.4 C 91 % -2.68 C
738 23-10-2011 03:32:01 -0.8 C 91 % -2.08 C
739 23-10-2011 03:44:01 -1.1 C 91 % -2.38 C
740 23-10-2011 03:56:01 -1.1 C 91 % -2.38 C
741 23-10-2011 04:08:02 -1.1 C 92 % -2.23 C
742 23-10-2011 04:20:01 -0.6 C 92 % -1.74 C
743 23-10-2011 04:32:01 -0.9 C 92 % -2.03 C
744 23-10-2011 04:44:01 -1.4 C 92 % -2.53 C
745 23-10-2011 04:56:01 -1.1 C 92 % -2.23 C
746 23-10-2011 05:08:01 -1.1 C 92 % -2.23 C
747 23-10-2011 05:20:02 -0.5 C 93 % -1.49 C
748 23-10-2011 05:32:01 -1 C 93 % -1.99 C
749 23-10-2011 05:44:01 -1.5 C 92 % -2.63 C
750 23-10-2011 05:56:01 -1.8 C 92 % -2.92 C
Sensor: Nr:Datum:Temp:Feuchte:Taupunkt:
Aussen-T/F 751 23-10-2011 06:08:01 -2 C 92 % -3.12 C
752 23-10-2011 06:20:02 -2.1 C 92 % -3.22 C
753 23-10-2011 06:32:01 -1.9 C 92 % -3.02 C
754 23-10-2011 06:44:01 -1.1 C 92 % -2.23 C
755 23-10-2011 06:56:02 -1.4 C 92 % -2.53 C
756 23-10-2011 07:08:01 -1.4 C 92 % -2.53 C
757 23-10-2011 07:20:01 -1.7 C 92 % -2.83 C
758 23-10-2011 07:32:02 -1.6 C 92 % -2.73 C
759 23-10-2011 07:44:02 -1.2 C 92 % -2.33 C
760 23-10-2011 07:56:01 -1.3 C 92 % -2.43 C
761 23-10-2011 08:08:02 -1.4 C 92 % -2.53 C
762 23-10-2011 08:20:01 -1.2 C 92 % -2.33 C
763 23-10-2011 08:32:01 -1.2 C 92 % -2.33 C
764 23-10-2011 08:44:02 -0.9 C 93 % -1.89 C
765 23-10-2011 08:56:01 -1.1 C 92 % -2.23 C
766 23-10-2011 09:08:02 -1 C 93 % -1.99 C
767 23-10-2011 09:20:01 -0.7 C 93 % -1.69 C
768 23-10-2011 09:32:01 -0.9 C 93 % -1.89 C
769 23-10-2011 09:44:01 -0.9 C 92 % -2.03 C
770 23-10-2011 09:56:01 -0.9 C 92 % -2.03 C
771 23-10-2011 10:08:01 -1 C 92 % -2.13 C
772 23-10-2011 10:20:02 -1 C 92 % -2.13 C
773 23-10-2011 10:32:01 -0.7 C 92 % -1.83 C
774 23-10-2011 10:44:01 -0.7 C 92 % -1.83 C
775 23-10-2011 10:56:02 -0.4 C 92 % -1.54 C
Sensor: Nr:Datum:Temp:Feuchte:Taupunkt:
Aussen-T/F 776 23-10-2011 11:08:01 0.3 C 93 % -0.7 C
777 23-10-2011 11:20:01 0.6 C 93 % -0.4 C
778 23-10-2011 11:32:02 1 C 92 % -0.15 C
779 23-10-2011 11:44:02 1.9 C 92 % 0.74 C
780 23-10-2011 11:56:01 2.7 C 93 % 1.68 C
781 23-10-2011 12:08:02 3.5 C 92 % 2.33 C
782 23-10-2011 12:20:01 4.1 C 92 % 2.92 C
783 23-10-2011 12:32:02 4.3 C 92 % 3.12 C
784 23-10-2011 12:44:02 5.2 C 92 % 4.01 C
785 23-10-2011 12:56:01 5.1 C 92 % 3.91 C
786 23-10-2011 13:08:02 5.3 C 92 % 4.11 C
787 23-10-2011 13:20:01 6.7 C 91 % 5.34 C
788 23-10-2011 13:32:01 9.6 C 89 % 7.88 C
789 23-10-2011 13:44:01 8.4 C 84 % 5.86 C
790 23-10-2011 13:56:01 7.4 C 81 % 4.36 C
791 23-10-2011 14:08:01 6.9 C 82 % 4.05 C
792 23-10-2011 14:20:02 8.2 C 72 % 3.46 C
793 23-10-2011 14:32:01 7.8 C 72 % 3.08 C
794 23-10-2011 14:44:01 7.4 C 75 % 3.27 C
795 23-10-2011 14:56:02 7.9 C 74 % 3.56 C
796 23-10-2011 15:08:01 8.9 C 65 % 2.69 C
797 23-10-2011 15:20:02 8.7 C 66 % 2.71 C
798 23-10-2011 15:32:01 8.3 C 70 % 3.16 C
799 23-10-2011 15:44:01 7.9 C 73 % 3.37 C
800 23-10-2011 15:56:02 8 C 74 % 3.66 C
Sensor: Nr:Datum:Temp:Feuchte:Taupunkt:
Aussen-T/F 801 23-10-2011 16:08:01 8.3 C 73 % 3.75 C
802 23-10-2011 16:20:01 8.1 C 73 % 3.56 C
803 23-10-2011 16:32:02 8.6 C 71 % 3.65 C
804 23-10-2011 16:44:02 9.8 C 66 % 3.76 C
805 23-10-2011 16:56:01 13.6 C 52 % 3.94 C
806 23-10-2011 17:08:02 13.1 C 48 % 2.35 C
807 23-10-2011 17:20:01 12.9 C 47 % 1.87 C
808 23-10-2011 17:32:01 12 C 50 % 1.91 C
809 23-10-2011 17:44:02 11.2 C 52 % 1.72 C
810 23-10-2011 17:56:01 8.5 C 60 % 1.19 C
811 23-10-2011 18:08:02 6.7 C 73 % 2.21 C
812 23-10-2011 18:20:01 6 C 75 % 1.91 C
813 23-10-2011 18:32:01 5.6 C 78 % 2.07 C
814 23-10-2011 18:44:01 5.1 C 78 % 1.59 C
815 23-10-2011 18:56:01 4.6 C 80 % 1.46 C
816 23-10-2011 19:08:01 4.1 C 82 % 1.31 C
817 23-10-2011 19:20:02 4.3 C 83 % 1.67 C
818 23-10-2011 19:32:01 4.3 C 84 % 1.84 C
819 23-10-2011 19:44:01 4.3 C 84 % 1.84 C
820 23-10-2011 19:56:02 4 C 84 % 1.55 C
821 23-10-2011 20:08:01 4.1 C 85 % 1.81 C
822 23-10-2011 20:20:01 3.7 C 86 % 1.58 C
823 23-10-2011 20:32:01 3.5 C 87 % 1.55 C
824 23-10-2011 20:44:01 3.3 C 87 % 1.35 C
825 23-10-2011 20:56:01 3.3 C 88 % 1.51 C
Sensor: Nr:Datum:Temp:Feuchte:Taupunkt:
Aussen-T/F 826 23-10-2011 21:08:01 2.9 C 89 % 1.27 C
827 23-10-2011 21:20:01 3 C 88 % 1.21 C
828 23-10-2011 21:32:02 3 C 89 % 1.37 C
829 23-10-2011 21:44:02 2.5 C 90 % 1.03 C
830 23-10-2011 21:56:01 2.5 C 90 % 1.03 C
831 23-10-2011 22:08:02 2.3 C 90 % 0.83 C
832 23-10-2011 22:20:01 2.5 C 91 % 1.18 C
833 23-10-2011 22:32:01 2.3 C 91 % 0.99 C
834 23-10-2011 22:44:02 2.6 C 91 % 1.28 C
835 23-10-2011 22:56:01 2.5 C 91 % 1.18 C
836 23-10-2011 23:08:01 1.9 C 92 % 0.74 C
837 23-10-2011 23:20:01 2.6 C 91 % 1.28 C
838 23-10-2011 23:32:01 2.4 C 91 % 1.08 C
839 23-10-2011 23:44:01 2.3 C 92 % 1.14 C
840 23-10-2011 23:56:01 2.4 C 92 % 1.24 C

Legende:
   Min
   Max


Maximal/Minimal-Werte vom 17.10.2011 - 23.10.2011

Sensor Min Max Avg
Temp
(Aussen-T/F)
-2.1 °C
23-10-2011  06:20:02
17.2 °C
18-10-2011  13:04:02
5.45 °C
Feuchte
(Aussen-T/F)
42 %
22-10-2011  17:08:02
95 %
21-10-2011  08:19:01
81.37 %
Taupunkt
(Aussen-T/F)
-3.22 C
23-10-2011  06:20:02
8.91 C
18-10-2011  09:16:02
2.26 C

Die Daten stammen von einer Davis Vantage Pro 2 Wetter-Station und werden unter Linux mit der Software wview2wettercgi und aufbereitet. Alle Angaben erfolgen ohne Gewähr für ihre Vollständigkeit oder Richtigkeit.
Kontakt: Rainer Krienke krienke@uni-koblenz.de . Meine Webseiten an der Uni Koblenz oder privat.
Version: $Revision: 0.78 $